logo
Search for airport 
image banner adimage banner adimage banner ad
image banner ad

EHYP - Ypad

Located in , Netherlands

ICAO - EHYP, IATA -

Data provided by Airmate  

General information

Coordinates: N52°28'12" E4°35'42"
Elevation is 1 feet MSL.
 
View others Airports in Noord-Holland

Operational data

Special qualification required
Current time UTC:
Current local time:
Weather at : EHAM - Amsterdam/Schiphol ( 21 km )
METAR: EHAM 230925Z 19021KT 170V230 9999 VCSH FEW011 SCT014 BKN018 FEW020CB 05/04 Q0987 BECMG SCT018
TAF: TAF EHAM 230450Z 2306/2412 20017KT 9999 FEW025 SCT040 PROB30 2306/2310 FEW008 BKN012 TEMPO 2307/2322 6000 SHRA SCT018CB BKN025 PROB40 TEMPO 2308/2314 21020G30KT BECMG 2314/2317 19010KT PROB30 TEMPO 2405/2412 7000 -SHRAGS SCT018CB
View NOTAMs / SUP AIP / TFR affecting this airport [VIEW]
Communications frequencies: [VIEW]

Runways:

Airport contact information

Address: Netherlands

Satellite view of EHYP